Terminal Aerodrome Forecast
Issued by NWS

Home | Current Version | Previous Version | Text Only | Print | Product List | Glossary On
Versions: 1 2 3 4 5 6 7 8 9 10 11 12 13
000
FTUS44 KBMX 091120
TAFMGM
TAF
KMGM 091120Z 0912/1012 35007KT P6SM BKN250
     FM091600 35012KT P6SM SKC
     FM100000 35004KT P6SM SKC=

USA.gov is the U.S. government's official web portal to all federal, state and local government web resources and services.